sensor_id;sensor_type;location;lat;lon;timestamp;P1;durP1;ratioP1;P2;durP2;ratioP2
39738;SDS011;25422;48.286;8.484;2022-12-07T00:03:35;24.23;;;12.27;;
39738;SDS011;25422;48.286;8.484;2022-12-07T00:06:02;33.53;;;16.95;;
39738;SDS011;25422;48.286;8.484;2022-12-07T00:08:29;16.38;;;10.63;;
39738;SDS011;25422;48.286;8.484;2022-12-07T00:10:59;17.73;;;10.85;;
39738;SDS011;25422;48.286;8.484;2022-12-07T00:13:26;17.48;;;10.98;;
39738;SDS011;25422;48.286;8.484;2022-12-07T00:15:51;16.30;;;10.55;;
39738;SDS011;25422;48.286;8.484;2022-12-07T00:18:17;15.57;;;10.43;;
39738;SDS011;25422;48.286;8.484;2022-12-07T00:20:42;17.65;;;10.75;;
39738;SDS011;25422;48.286;8.484;2022-12-07T00:23:07;18.77;;;9.57;;
39738;SDS011;25422;48.286;8.484;2022-12-07T00:25:33;14.90;;;9.63;;
39738;SDS011;25422;48.286;8.484;2022-12-07T00:27:58;14.68;;;9.77;;
39738;SDS011;25422;48.286;8.484;2022-12-07T00:30:24;16.23;;;10.20;;
39738;SDS011;25422;48.286;8.484;2022-12-07T00:32:49;14.60;;;9.32;;
39738;SDS011;25422;48.286;8.484;2022-12-07T00:35:15;15.88;;;9.43;;
39738;SDS011;25422;48.286;8.484;2022-12-07T00:37:40;17.08;;;11.48;;
39738;SDS011;25422;48.286;8.484;2022-12-07T00:40:06;16.45;;;9.75;;
39738;SDS011;25422;48.286;8.484;2022-12-07T00:42:32;17.35;;;10.23;;
39738;SDS011;25422;48.286;8.484;2022-12-07T00:44:58;16.80;;;9.90;;
39738;SDS011;25422;48.286;8.484;2022-12-07T00:47:23;21.50;;;10.80;;
39738;SDS011;25422;48.286;8.484;2022-12-07T00:49:49;18.52;;;11.07;;
39738;SDS011;25422;48.286;8.484;2022-12-07T00:52:14;26.13;;;13.32;;
39738;SDS011;25422;48.286;8.484;2022-12-07T00:54:39;22.25;;;13.00;;
39738;SDS011;25422;48.286;8.484;2022-12-07T00:57:05;25.20;;;13.18;;
39738;SDS011;25422;48.286;8.484;2022-12-07T00:59:30;19.48;;;11.32;;
39738;SDS011;25422;48.286;8.484;2022-12-07T01:01:56;20.10;;;10.43;;
39738;SDS011;25422;48.286;8.484;2022-12-07T01:04:21;18.70;;;11.63;;
39738;SDS011;25422;48.286;8.484;2022-12-07T01:06:47;21.33;;;12.50;;
39738;SDS011;25422;48.286;8.484;2022-12-07T01:09:12;21.75;;;12.45;;
39738;SDS011;25422;48.286;8.484;2022-12-07T01:11:37;19.75;;;11.70;;
39738;SDS011;25422;48.286;8.484;2022-12-07T01:14:03;18.95;;;11.65;;
39738;SDS011;25422;48.286;8.484;2022-12-07T01:16:29;25.05;;;12.90;;
39738;SDS011;25422;48.286;8.484;2022-12-07T01:18:56;22.02;;;12.45;;
39738;SDS011;25422;48.286;8.484;2022-12-07T01:21:29;23.77;;;12.57;;
39738;SDS011;25422;48.286;8.484;2022-12-07T01:24:01;24.45;;;13.38;;
39738;SDS011;25422;48.286;8.484;2022-12-07T01:26:27;19.73;;;11.88;;
39738;SDS011;25422;48.286;8.484;2022-12-07T01:28:53;23.15;;;13.13;;
39738;SDS011;25422;48.286;8.484;2022-12-07T01:31:21;22.48;;;12.70;;
39738;SDS011;25422;48.286;8.484;2022-12-07T01:33:49;26.10;;;13.63;;
39738;SDS011;25422;48.286;8.484;2022-12-07T01:36:23;23.38;;;13.15;;
39738;SDS011;25422;48.286;8.484;2022-12-07T01:38:51;26.33;;;12.88;;
39738;SDS011;25422;48.286;8.484;2022-12-07T01:41:21;27.90;;;13.75;;
39738;SDS011;25422;48.286;8.484;2022-12-07T01:46:32;28.00;;;14.80;;
39738;SDS011;25422;48.286;8.484;2022-12-07T01:48:58;25.05;;;14.00;;
39738;SDS011;25422;48.286;8.484;2022-12-07T01:51:24;23.45;;;13.32;;
39738;SDS011;25422;48.286;8.484;2022-12-07T01:53:51;25.33;;;13.55;;
39738;SDS011;25422;48.286;8.484;2022-12-07T01:56:18;25.65;;;13.85;;
39738;SDS011;25422;48.286;8.484;2022-12-07T01:58:46;28.02;;;14.80;;
39738;SDS011;25422;48.286;8.484;2022-12-07T02:01:12;28.75;;;14.63;;
39738;SDS011;25422;48.286;8.484;2022-12-07T02:03:42;29.35;;;15.20;;
39738;SDS011;25422;48.286;8.484;2022-12-07T02:06:10;28.35;;;15.25;;
39738;SDS011;25422;48.286;8.484;2022-12-07T02:08:38;28.43;;;15.10;;
39738;SDS011;25422;48.286;8.484;2022-12-07T02:11:04;30.20;;;16.52;;
39738;SDS011;25422;48.286;8.484;2022-12-07T02:13:32;35.13;;;16.38;;
39738;SDS011;25422;48.286;8.484;2022-12-07T02:18:55;27.38;;;15.25;;
39738;SDS011;25422;48.286;8.484;2022-12-07T02:34:56;28.00;;;14.98;;
39738;SDS011;25422;48.286;8.484;2022-12-07T02:40:18;27.27;;;14.20;;
39738;SDS011;25422;48.286;8.484;2022-12-07T02:42:52;23.20;;;12.98;;
39738;SDS011;25422;48.286;8.484;2022-12-07T02:45:24;26.90;;;15.07;;
39738;SDS011;25422;48.286;8.484;2022-12-07T02:47:53;27.57;;;15.13;;
39738;SDS011;25422;48.286;8.484;2022-12-07T02:50:23;30.52;;;16.35;;
39738;SDS011;25422;48.286;8.484;2022-12-07T02:52:49;26.77;;;15.55;;
39738;SDS011;25422;48.286;8.484;2022-12-07T02:55:15;29.45;;;14.70;;
39738;SDS011;25422;48.286;8.484;2022-12-07T03:00:20;26.45;;;14.18;;
39738;SDS011;25422;48.286;8.484;2022-12-07T03:05:27;22.33;;;12.75;;
39738;SDS011;25422;48.286;8.484;2022-12-07T03:13:28;26.88;;;15.45;;
39738;SDS011;25422;48.286;8.484;2022-12-07T03:19:03;24.98;;;15.27;;
39738;SDS011;25422;48.286;8.484;2022-12-07T03:24:15;17.60;;;10.57;;
39738;SDS011;25422;48.286;8.484;2022-12-07T03:26:45;16.85;;;10.57;;
39738;SDS011;25422;48.286;8.484;2022-12-07T03:29:19;17.73;;;12.25;;
39738;SDS011;25422;48.286;8.484;2022-12-07T03:31:51;14.95;;;10.13;;
39738;SDS011;25422;48.286;8.484;2022-12-07T03:34:31;18.60;;;11.65;;
39738;SDS011;25422;48.286;8.484;2022-12-07T03:37:22;14.80;;;9.23;;
39738;SDS011;25422;48.286;8.484;2022-12-07T03:42:32;16.98;;;10.43;;
39738;SDS011;25422;48.286;8.484;2022-12-07T03:44:58;23.45;;;14.15;;
39738;SDS011;25422;48.286;8.484;2022-12-07T03:47:34;21.73;;;13.43;;
39738;SDS011;25422;48.286;8.484;2022-12-07T03:50:17;18.20;;;12.00;;
39738;SDS011;25422;48.286;8.484;2022-12-07T03:55:31;18.60;;;10.77;;
39738;SDS011;25422;48.286;8.484;2022-12-07T03:58:02;15.60;;;10.65;;
39738;SDS011;25422;48.286;8.484;2022-12-07T04:00:30;18.38;;;11.23;;
39738;SDS011;25422;48.286;8.484;2022-12-07T04:02:56;19.40;;;11.05;;
39738;SDS011;25422;48.286;8.484;2022-12-07T04:05:22;20.63;;;12.73;;
39738;SDS011;25422;48.286;8.484;2022-12-07T04:07:48;18.98;;;11.48;;
39738;SDS011;25422;48.286;8.484;2022-12-07T04:10:13;21.58;;;12.70;;
39738;SDS011;25422;48.286;8.484;2022-12-07T04:12:39;22.20;;;11.25;;
39738;SDS011;25422;48.286;8.484;2022-12-07T04:15:04;23.35;;;12.95;;
39738;SDS011;25422;48.286;8.484;2022-12-07T04:17:30;23.67;;;14.23;;
39738;SDS011;25422;48.286;8.484;2022-12-07T04:19:56;21.00;;;14.13;;
39738;SDS011;25422;48.286;8.484;2022-12-07T04:22:21;21.55;;;13.48;;
39738;SDS011;25422;48.286;8.484;2022-12-07T04:24:47;21.90;;;12.13;;
39738;SDS011;25422;48.286;8.484;2022-12-07T04:27:12;20.58;;;12.07;;
39738;SDS011;25422;48.286;8.484;2022-12-07T04:29:37;21.55;;;12.73;;
39738;SDS011;25422;48.286;8.484;2022-12-07T04:32:03;22.23;;;13.05;;
39738;SDS011;25422;48.286;8.484;2022-12-07T04:34:28;24.52;;;13.93;;
39738;SDS011;25422;48.286;8.484;2022-12-07T04:36:54;20.33;;;12.18;;
39738;SDS011;25422;48.286;8.484;2022-12-07T04:39:24;22.67;;;12.55;;
39738;SDS011;25422;48.286;8.484;2022-12-07T04:41:51;20.40;;;12.43;;
39738;SDS011;25422;48.286;8.484;2022-12-07T04:44:17;22.48;;;13.23;;
39738;SDS011;25422;48.286;8.484;2022-12-07T04:46:44;24.67;;;13.68;;
39738;SDS011;25422;48.286;8.484;2022-12-07T04:49:10;21.00;;;12.98;;
39738;SDS011;25422;48.286;8.484;2022-12-07T04:51:36;21.88;;;12.05;;
39738;SDS011;25422;48.286;8.484;2022-12-07T04:54:02;21.25;;;12.85;;
39738;SDS011;25422;48.286;8.484;2022-12-07T04:56:27;20.15;;;12.50;;
39738;SDS011;25422;48.286;8.484;2022-12-07T04:58:54;19.48;;;12.38;;
39738;SDS011;25422;48.286;8.484;2022-12-07T05:01:20;20.48;;;12.68;;
39738;SDS011;25422;48.286;8.484;2022-12-07T05:03:47;19.98;;;12.00;;
39738;SDS011;25422;48.286;8.484;2022-12-07T05:06:13;23.02;;;13.20;;
39738;SDS011;25422;48.286;8.484;2022-12-07T05:08:39;22.02;;;12.40;;
39738;SDS011;25422;48.286;8.484;2022-12-07T05:11:04;22.88;;;13.18;;
39738;SDS011;25422;48.286;8.484;2022-12-07T05:13:31;22.95;;;13.20;;
39738;SDS011;25422;48.286;8.484;2022-12-07T05:15:57;23.40;;;13.15;;
39738;SDS011;25422;48.286;8.484;2022-12-07T05:18:23;23.23;;;14.27;;
39738;SDS011;25422;48.286;8.484;2022-12-07T05:20:48;21.75;;;13.48;;
39738;SDS011;25422;48.286;8.484;2022-12-07T05:23:14;24.15;;;14.15;;
39738;SDS011;25422;48.286;8.484;2022-12-07T05:25:39;25.42;;;15.40;;
39738;SDS011;25422;48.286;8.484;2022-12-07T05:28:05;25.80;;;14.18;;
39738;SDS011;25422;48.286;8.484;2022-12-07T05:30:31;27.65;;;14.82;;
39738;SDS011;25422;48.286;8.484;2022-12-07T05:32:57;22.75;;;13.40;;
39738;SDS011;25422;48.286;8.484;2022-12-07T05:35:23;23.23;;;13.85;;
39738;SDS011;25422;48.286;8.484;2022-12-07T05:37:49;27.38;;;15.13;;
39738;SDS011;25422;48.286;8.484;2022-12-07T05:40:15;25.40;;;15.40;;
39738;SDS011;25422;48.286;8.484;2022-12-07T05:42:41;22.55;;;14.02;;
39738;SDS011;25422;48.286;8.484;2022-12-07T05:45:07;22.90;;;13.23;;
39738;SDS011;25422;48.286;8.484;2022-12-07T05:47:34;24.60;;;13.50;;
39738;SDS011;25422;48.286;8.484;2022-12-07T05:50:00;24.27;;;13.75;;
39738;SDS011;25422;48.286;8.484;2022-12-07T05:52:25;25.23;;;13.95;;
39738;SDS011;25422;48.286;8.484;2022-12-07T05:54:51;27.67;;;14.88;;
39738;SDS011;25422;48.286;8.484;2022-12-07T05:57:17;29.73;;;15.27;;
39738;SDS011;25422;48.286;8.484;2022-12-07T05:59:42;28.58;;;15.20;;
39738;SDS011;25422;48.286;8.484;2022-12-07T06:02:08;29.83;;;15.23;;
39738;SDS011;25422;48.286;8.484;2022-12-07T06:04:36;27.73;;;15.20;;
39738;SDS011;25422;48.286;8.484;2022-12-07T06:07:06;27.55;;;15.30;;
39738;SDS011;25422;48.286;8.484;2022-12-07T06:09:33;28.98;;;15.07;;
39738;SDS011;25422;48.286;8.484;2022-12-07T06:11:59;29.27;;;15.90;;
39738;SDS011;25422;48.286;8.484;2022-12-07T06:14:43;32.00;;;14.68;;
39738;SDS011;25422;48.286;8.484;2022-12-07T06:17:09;30.13;;;15.00;;
39738;SDS011;25422;48.286;8.484;2022-12-07T06:19:37;28.15;;;14.15;;
39738;SDS011;25422;48.286;8.484;2022-12-07T06:22:02;30.50;;;15.68;;
39738;SDS011;25422;48.286;8.484;2022-12-07T06:24:30;30.33;;;15.32;;
39738;SDS011;25422;48.286;8.484;2022-12-07T06:26:56;29.52;;;14.82;;
39738;SDS011;25422;48.286;8.484;2022-12-07T06:29:21;30.35;;;15.77;;
39738;SDS011;25422;48.286;8.484;2022-12-07T06:31:47;28.73;;;15.60;;
39738;SDS011;25422;48.286;8.484;2022-12-07T06:34:15;32.30;;;16.20;;
39738;SDS011;25422;48.286;8.484;2022-12-07T06:36:42;37.50;;;17.77;;
39738;SDS011;25422;48.286;8.484;2022-12-07T06:39:07;33.63;;;17.92;;
39738;SDS011;25422;48.286;8.484;2022-12-07T06:41:34;34.55;;;18.15;;
39738;SDS011;25422;48.286;8.484;2022-12-07T06:44:04;32.47;;;17.40;;
39738;SDS011;25422;48.286;8.484;2022-12-07T06:46:31;34.40;;;16.77;;
39738;SDS011;25422;48.286;8.484;2022-12-07T06:48:56;36.85;;;16.95;;
39738;SDS011;25422;48.286;8.484;2022-12-07T06:51:22;34.28;;;16.58;;
39738;SDS011;25422;48.286;8.484;2022-12-07T06:53:47;33.13;;;16.85;;
39738;SDS011;25422;48.286;8.484;2022-12-07T06:56:13;35.08;;;17.92;;
39738;SDS011;25422;48.286;8.484;2022-12-07T06:58:38;34.10;;;16.98;;
39738;SDS011;25422;48.286;8.484;2022-12-07T07:01:08;42.60;;;17.13;;
39738;SDS011;25422;48.286;8.484;2022-12-07T07:03:35;34.50;;;16.83;;
39738;SDS011;25422;48.286;8.484;2022-12-07T07:06:00;39.47;;;17.17;;
39738;SDS011;25422;48.286;8.484;2022-12-07T07:08:26;37.88;;;16.55;;
39738;SDS011;25422;48.286;8.484;2022-12-07T07:10:51;41.35;;;17.50;;
39738;SDS011;25422;48.286;8.484;2022-12-07T07:13:16;37.50;;;17.13;;
39738;SDS011;25422;48.286;8.484;2022-12-07T07:15:42;39.25;;;17.55;;
39738;SDS011;25422;48.286;8.484;2022-12-07T07:18:07;45.42;;;17.85;;
39738;SDS011;25422;48.286;8.484;2022-12-07T07:20:33;39.70;;;17.95;;
39738;SDS011;25422;48.286;8.484;2022-12-07T07:22:59;42.40;;;18.48;;
39738;SDS011;25422;48.286;8.484;2022-12-07T07:25:24;42.63;;;18.88;;
39738;SDS011;25422;48.286;8.484;2022-12-07T07:27:49;42.38;;;19.92;;
39738;SDS011;25422;48.286;8.484;2022-12-07T07:30:15;41.05;;;19.35;;
39738;SDS011;25422;48.286;8.484;2022-12-07T07:32:40;37.65;;;19.38;;
39738;SDS011;25422;48.286;8.484;2022-12-07T07:35:06;35.35;;;17.60;;
39738;SDS011;25422;48.286;8.484;2022-12-07T07:37:31;39.25;;;18.80;;
39738;SDS011;25422;48.286;8.484;2022-12-07T07:39:57;69.50;;;31.90;;
39738;SDS011;25422;48.286;8.484;2022-12-07T07:42:22;41.13;;;19.60;;
39738;SDS011;25422;48.286;8.484;2022-12-07T07:44:48;39.70;;;21.10;;
39738;SDS011;25422;48.286;8.484;2022-12-07T07:47:13;36.20;;;19.75;;
39738;SDS011;25422;48.286;8.484;2022-12-07T07:49:38;42.67;;;22.95;;
39738;SDS011;25422;48.286;8.484;2022-12-07T07:52:05;40.13;;;19.92;;
39738;SDS011;25422;48.286;8.484;2022-12-07T07:54:31;30.27;;;18.17;;
39738;SDS011;25422;48.286;8.484;2022-12-07T07:56:56;23.55;;;14.35;;
39738;SDS011;25422;48.286;8.484;2022-12-07T07:59:22;20.92;;;13.48;;
39738;SDS011;25422;48.286;8.484;2022-12-07T08:01:48;25.70;;;15.07;;
39738;SDS011;25422;48.286;8.484;2022-12-07T08:04:13;22.30;;;14.00;;
39738;SDS011;25422;48.286;8.484;2022-12-07T08:06:39;22.42;;;13.95;;
39738;SDS011;25422;48.286;8.484;2022-12-07T08:09:04;24.77;;;14.43;;
39738;SDS011;25422;48.286;8.484;2022-12-07T08:11:31;24.52;;;17.15;;
39738;SDS011;25422;48.286;8.484;2022-12-07T08:13:56;26.52;;;16.35;;
39738;SDS011;25422;48.286;8.484;2022-12-07T08:16:22;21.55;;;14.20;;
39738;SDS011;25422;48.286;8.484;2022-12-07T08:18:47;21.35;;;13.32;;
39738;SDS011;25422;48.286;8.484;2022-12-07T08:21:14;20.08;;;12.75;;
39738;SDS011;25422;48.286;8.484;2022-12-07T08:23:40;18.85;;;13.50;;
39738;SDS011;25422;48.286;8.484;2022-12-07T08:26:07;21.35;;;12.57;;
39738;SDS011;25422;48.286;8.484;2022-12-07T08:28:35;24.23;;;16.50;;
39738;SDS011;25422;48.286;8.484;2022-12-07T08:31:01;26.00;;;18.35;;
39738;SDS011;25422;48.286;8.484;2022-12-07T08:33:28;18.30;;;13.15;;
39738;SDS011;25422;48.286;8.484;2022-12-07T08:35:53;19.27;;;12.85;;
39738;SDS011;25422;48.286;8.484;2022-12-07T08:38:19;16.52;;;12.15;;
39738;SDS011;25422;48.286;8.484;2022-12-07T08:40:44;19.23;;;12.40;;
39738;SDS011;25422;48.286;8.484;2022-12-07T08:43:10;16.70;;;11.32;;
39738;SDS011;25422;48.286;8.484;2022-12-07T08:45:35;18.85;;;12.30;;
39738;SDS011;25422;48.286;8.484;2022-12-07T08:50:33;13.88;;;8.88;;
39738;SDS011;25422;48.286;8.484;2022-12-07T08:53:01;16.33;;;10.63;;
39738;SDS011;25422;48.286;8.484;2022-12-07T08:55:29;17.70;;;10.50;;
39738;SDS011;25422;48.286;8.484;2022-12-07T08:57:59;15.60;;;10.82;;
39738;SDS011;25422;48.286;8.484;2022-12-07T09:00:27;15.27;;;10.13;;
39738;SDS011;25422;48.286;8.484;2022-12-07T09:02:53;14.73;;;10.20;;
39738;SDS011;25422;48.286;8.484;2022-12-07T09:05:19;15.00;;;9.88;;
39738;SDS011;25422;48.286;8.484;2022-12-07T09:07:45;14.48;;;10.18;;
39738;SDS011;25422;48.286;8.484;2022-12-07T09:10:14;13.93;;;9.80;;
39738;SDS011;25422;48.286;8.484;2022-12-07T09:12:40;13.98;;;10.02;;
39738;SDS011;25422;48.286;8.484;2022-12-07T09:15:05;14.00;;;9.65;;
39738;SDS011;25422;48.286;8.484;2022-12-07T09:17:31;12.75;;;8.82;;
39738;SDS011;25422;48.286;8.484;2022-12-07T09:19:58;13.77;;;9.30;;
39738;SDS011;25422;48.286;8.484;2022-12-07T09:22:28;12.15;;;8.88;;
39738;SDS011;25422;48.286;8.484;2022-12-07T09:24:55;11.68;;;8.13;;
39738;SDS011;25422;48.286;8.484;2022-12-07T09:27:24;13.33;;;8.67;;
39738;SDS011;25422;48.286;8.484;2022-12-07T09:29:49;11.43;;;8.40;;
39738;SDS011;25422;48.286;8.484;2022-12-07T09:32:15;9.80;;;7.60;;
39738;SDS011;25422;48.286;8.484;2022-12-07T09:34:40;12.93;;;8.35;;
39738;SDS011;25422;48.286;8.484;2022-12-07T09:37:06;10.90;;;8.60;;
39738;SDS011;25422;48.286;8.484;2022-12-07T09:39:31;8.88;;;6.93;;
39738;SDS011;25422;48.286;8.484;2022-12-07T09:41:57;12.35;;;7.80;;
39738;SDS011;25422;48.286;8.484;2022-12-07T09:44:27;11.68;;;7.22;;
39738;SDS011;25422;48.286;8.484;2022-12-07T09:46:53;9.45;;;6.95;;
39738;SDS011;25422;48.286;8.484;2022-12-07T09:49:20;10.40;;;6.97;;
39738;SDS011;25422;48.286;8.484;2022-12-07T09:51:47;9.85;;;6.63;;
39738;SDS011;25422;48.286;8.484;2022-12-07T09:54:24;7.35;;;6.05;;
39738;SDS011;25422;48.286;8.484;2022-12-07T09:56:49;7.43;;;5.70;;
39738;SDS011;25422;48.286;8.484;2022-12-07T09:59:16;8.63;;;6.32;;
39738;SDS011;25422;48.286;8.484;2022-12-07T10:01:43;7.68;;;5.63;;
39738;SDS011;25422;48.286;8.484;2022-12-07T10:06:43;7.88;;;5.32;;
39738;SDS011;25422;48.286;8.484;2022-12-07T10:09:14;8.73;;;5.70;;
39738;SDS011;25422;48.286;8.484;2022-12-07T10:14:38;6.95;;;5.32;;
39738;SDS011;25422;48.286;8.484;2022-12-07T10:17:30;7.57;;;5.70;;
39738;SDS011;25422;48.286;8.484;2022-12-07T10:20:16;7.07;;;5.80;;
39738;SDS011;25422;48.286;8.484;2022-12-07T10:25:32;8.20;;;5.80;;
39738;SDS011;25422;48.286;8.484;2022-12-07T10:28:13;7.22;;;5.60;;
39738;SDS011;25422;48.286;8.484;2022-12-07T10:31:00;9.13;;;6.72;;
39738;SDS011;25422;48.286;8.484;2022-12-07T10:33:29;8.32;;;5.80;;
39738;SDS011;25422;48.286;8.484;2022-12-07T10:35:55;9.60;;;7.20;;
39738;SDS011;25422;48.286;8.484;2022-12-07T10:38:20;6.43;;;5.28;;
39738;SDS011;25422;48.286;8.484;2022-12-07T10:40:46;7.50;;;5.80;;
39738;SDS011;25422;48.286;8.484;2022-12-07T10:54:04;6.20;;;5.60;;
39738;SDS011;25422;48.286;8.484;2022-12-07T10:59:34;6.82;;;5.63;;
39738;SDS011;25422;48.286;8.484;2022-12-07T11:13:48;9.30;;;7.30;;
39738;SDS011;25422;48.286;8.484;2022-12-07T11:16:45;7.03;;;5.43;;
39738;SDS011;25422;48.286;8.484;2022-12-07T11:22:02;7.00;;;5.50;;
39738;SDS011;25422;48.286;8.484;2022-12-07T11:27:40;7.20;;;5.97;;
39738;SDS011;25422;48.286;8.484;2022-12-07T11:30:17;6.90;;;5.47;;
39738;SDS011;25422;48.286;8.484;2022-12-07T11:37:51;7.90;;;5.90;;
39738;SDS011;25422;48.286;8.484;2022-12-07T11:43:36;8.23;;;6.38;;
39738;SDS011;25422;48.286;8.484;2022-12-07T11:45:57;10.38;;;6.25;;
39738;SDS011;25422;48.286;8.484;2022-12-07T11:51:45;8.45;;;5.75;;
39738;SDS011;25422;48.286;8.484;2022-12-07T11:54:15;7.20;;;5.72;;
39738;SDS011;25422;48.286;8.484;2022-12-07T11:56:47;9.50;;;6.57;;
39738;SDS011;25422;48.286;8.484;2022-12-07T12:01:48;8.32;;;6.47;;
39738;SDS011;25422;48.286;8.484;2022-12-07T12:07:02;7.68;;;5.75;;
39738;SDS011;25422;48.286;8.484;2022-12-07T12:09:32;9.53;;;6.30;;
39738;SDS011;25422;48.286;8.484;2022-12-07T12:23:12;18.05;;;10.98;;
39738;SDS011;25422;48.286;8.484;2022-12-07T12:25:42;8.05;;;6.38;;
39738;SDS011;25422;48.286;8.484;2022-12-07T12:28:32;6.10;;;4.95;;
39738;SDS011;25422;48.286;8.484;2022-12-07T12:33:30;6.47;;;4.72;;
39738;SDS011;25422;48.286;8.484;2022-12-07T12:51:41;6.68;;;5.22;;
39738;SDS011;25422;48.286;8.484;2022-12-07T12:54:13;6.05;;;4.72;;
39738;SDS011;25422;48.286;8.484;2022-12-07T13:01:46;5.75;;;4.63;;
39738;SDS011;25422;48.286;8.484;2022-12-07T13:15:32;8.15;;;5.65;;
39738;SDS011;25422;48.286;8.484;2022-12-07T13:20:59;7.05;;;5.35;;
39738;SDS011;25422;48.286;8.484;2022-12-07T13:26:21;6.20;;;4.95;;
39738;SDS011;25422;48.286;8.484;2022-12-07T13:29:35;8.38;;;5.53;;
39738;SDS011;25422;48.286;8.484;2022-12-07T13:37:09;5.00;;;4.38;;
39738;SDS011;25422;48.286;8.484;2022-12-07T13:39:49;6.28;;;5.30;;
39738;SDS011;25422;48.286;8.484;2022-12-07T13:44:56;6.07;;;5.30;;
39738;SDS011;25422;48.286;8.484;2022-12-07T13:47:43;7.95;;;4.65;;
39738;SDS011;25422;48.286;8.484;2022-12-07T13:50:27;6.70;;;4.97;;
39738;SDS011;25422;48.286;8.484;2022-12-07T13:52:55;5.72;;;4.45;;
39738;SDS011;25422;48.286;8.484;2022-12-07T13:55:21;7.43;;;4.57;;
39738;SDS011;25422;48.286;8.484;2022-12-07T13:57:48;8.43;;;4.82;;
39738;SDS011;25422;48.286;8.484;2022-12-07T14:00:20;5.70;;;4.85;;
39738;SDS011;25422;48.286;8.484;2022-12-07T14:02:55;10.73;;;6.70;;
39738;SDS011;25422;48.286;8.484;2022-12-07T14:05:26;7.50;;;5.50;;
39738;SDS011;25422;48.286;8.484;2022-12-07T14:10:26;6.47;;;4.80;;
39738;SDS011;25422;48.286;8.484;2022-12-07T14:12:54;6.95;;;4.88;;
39738;SDS011;25422;48.286;8.484;2022-12-07T14:15:23;8.45;;;6.05;;
39738;SDS011;25422;48.286;8.484;2022-12-07T14:17:54;16.00;;;9.38;;
39738;SDS011;25422;48.286;8.484;2022-12-07T14:22:55;9.20;;;6.30;;
39738;SDS011;25422;48.286;8.484;2022-12-07T14:25:22;8.55;;;6.38;;
39738;SDS011;25422;48.286;8.484;2022-12-07T14:30:18;8.00;;;5.63;;
39738;SDS011;25422;48.286;8.484;2022-12-07T14:32:44;7.40;;;4.72;;
39738;SDS011;25422;48.286;8.484;2022-12-07T14:35:17;8.75;;;6.22;;
39738;SDS011;25422;48.286;8.484;2022-12-07T14:37:45;6.10;;;4.88;;
39738;SDS011;25422;48.286;8.484;2022-12-07T14:40:13;6.68;;;5.25;;
39738;SDS011;25422;48.286;8.484;2022-12-07T14:42:41;5.63;;;4.57;;
39738;SDS011;25422;48.286;8.484;2022-12-07T14:45:15;7.97;;;5.47;;
39738;SDS011;25422;48.286;8.484;2022-12-07T14:47:42;6.97;;;5.50;;
39738;SDS011;25422;48.286;8.484;2022-12-07T14:50:10;6.35;;;4.85;;
39738;SDS011;25422;48.286;8.484;2022-12-07T14:52:37;7.65;;;5.80;;
39738;SDS011;25422;48.286;8.484;2022-12-07T14:55:04;8.57;;;6.05;;
39738;SDS011;25422;48.286;8.484;2022-12-07T14:57:30;11.82;;;5.88;;
39738;SDS011;25422;48.286;8.484;2022-12-07T14:59:55;7.25;;;5.68;;
39738;SDS011;25422;48.286;8.484;2022-12-07T15:02:21;9.13;;;5.63;;
39738;SDS011;25422;48.286;8.484;2022-12-07T15:04:46;7.95;;;5.88;;
39738;SDS011;25422;48.286;8.484;2022-12-07T15:07:14;7.30;;;5.18;;
39738;SDS011;25422;48.286;8.484;2022-12-07T15:09:45;7.75;;;6.05;;
39738;SDS011;25422;48.286;8.484;2022-12-07T15:12:11;7.72;;;5.68;;
39738;SDS011;25422;48.286;8.484;2022-12-07T15:14:36;7.25;;;5.40;;
39738;SDS011;25422;48.286;8.484;2022-12-07T15:17:02;7.45;;;5.35;;
39738;SDS011;25422;48.286;8.484;2022-12-07T15:19:27;7.60;;;5.50;;
39738;SDS011;25422;48.286;8.484;2022-12-07T15:21:53;8.00;;;5.65;;
39738;SDS011;25422;48.286;8.484;2022-12-07T15:24:19;8.60;;;5.85;;
39738;SDS011;25422;48.286;8.484;2022-12-07T15:26:45;6.85;;;5.60;;
39738;SDS011;25422;48.286;8.484;2022-12-07T15:29:11;8.15;;;5.53;;
39738;SDS011;25422;48.286;8.484;2022-12-07T15:31:39;8.52;;;6.03;;
39738;SDS011;25422;48.286;8.484;2022-12-07T15:34:05;9.80;;;5.68;;
39738;SDS011;25422;48.286;8.484;2022-12-07T15:36:31;9.20;;;6.10;;
39738;SDS011;25422;48.286;8.484;2022-12-07T15:38:58;10.02;;;6.60;;
39738;SDS011;25422;48.286;8.484;2022-12-07T15:41:24;15.52;;;9.10;;
39738;SDS011;25422;48.286;8.484;2022-12-07T15:43:50;32.33;;;16.67;;
39738;SDS011;25422;48.286;8.484;2022-12-07T15:46:36;60.53;;;30.33;;
39738;SDS011;25422;48.286;8.484;2022-12-07T15:49:03;28.67;;;13.75;;
39738;SDS011;25422;48.286;8.484;2022-12-07T15:51:31;14.10;;;9.98;;
39738;SDS011;25422;48.286;8.484;2022-12-07T15:53:57;15.00;;;8.95;;
39738;SDS011;25422;48.286;8.484;2022-12-07T15:56:23;16.63;;;8.45;;
39738;SDS011;25422;48.286;8.484;2022-12-07T15:58:48;19.85;;;10.45;;
39738;SDS011;25422;48.286;8.484;2022-12-07T16:01:15;17.92;;;10.93;;
39738;SDS011;25422;48.286;8.484;2022-12-07T16:03:42;19.98;;;12.43;;
39738;SDS011;25422;48.286;8.484;2022-12-07T16:06:09;19.63;;;11.50;;
39738;SDS011;25422;48.286;8.484;2022-12-07T16:08:34;19.85;;;11.77;;
39738;SDS011;25422;48.286;8.484;2022-12-07T16:11:03;19.80;;;12.10;;
39738;SDS011;25422;48.286;8.484;2022-12-07T16:13:30;24.50;;;13.98;;
39738;SDS011;25422;48.286;8.484;2022-12-07T16:15:55;54.22;;;29.70;;
39738;SDS011;25422;48.286;8.484;2022-12-07T16:18:21;33.45;;;18.25;;
39738;SDS011;25422;48.286;8.484;2022-12-07T16:20:49;21.77;;;10.75;;
39738;SDS011;25422;48.286;8.484;2022-12-07T16:23:15;29.00;;;18.88;;
39738;SDS011;25422;48.286;8.484;2022-12-07T16:25:40;21.98;;;12.63;;
39738;SDS011;25422;48.286;8.484;2022-12-07T16:28:06;23.25;;;14.73;;
39738;SDS011;25422;48.286;8.484;2022-12-07T16:30:32;23.20;;;13.18;;
39738;SDS011;25422;48.286;8.484;2022-12-07T16:32:58;21.00;;;12.40;;
39738;SDS011;25422;48.286;8.484;2022-12-07T16:35:23;22.08;;;10.57;;
39738;SDS011;25422;48.286;8.484;2022-12-07T16:37:49;18.42;;;9.20;;
39738;SDS011;25422;48.286;8.484;2022-12-07T16:40:14;14.43;;;8.45;;
39738;SDS011;25422;48.286;8.484;2022-12-07T16:42:40;15.57;;;7.75;;
39738;SDS011;25422;48.286;8.484;2022-12-07T16:45:05;13.95;;;7.35;;
39738;SDS011;25422;48.286;8.484;2022-12-07T16:47:31;10.00;;;6.97;;
39738;SDS011;25422;48.286;8.484;2022-12-07T16:49:56;10.60;;;6.47;;
39738;SDS011;25422;48.286;8.484;2022-12-07T16:52:22;22.65;;;11.45;;
39738;SDS011;25422;48.286;8.484;2022-12-07T16:54:48;87.03;;;38.60;;
39738;SDS011;25422;48.286;8.484;2022-12-07T16:57:14;79.65;;;39.10;;
39738;SDS011;25422;48.286;8.484;2022-12-07T16:59:40;100.82;;;48.55;;
39738;SDS011;25422;48.286;8.484;2022-12-07T17:02:05;32.65;;;16.70;;
39738;SDS011;25422;48.286;8.484;2022-12-07T17:04:32;10.82;;;6.97;;
39738;SDS011;25422;48.286;8.484;2022-12-07T17:06:58;12.68;;;8.43;;
39738;SDS011;25422;48.286;8.484;2022-12-07T17:09:24;15.05;;;9.45;;
39738;SDS011;25422;48.286;8.484;2022-12-07T17:11:49;16.83;;;10.88;;
39738;SDS011;25422;48.286;8.484;2022-12-07T17:14:15;18.42;;;11.73;;
39738;SDS011;25422;48.286;8.484;2022-12-07T17:16:59;17.45;;;10.32;;
39738;SDS011;25422;48.286;8.484;2022-12-07T17:19:25;25.98;;;13.95;;
39738;SDS011;25422;48.286;8.484;2022-12-07T17:21:50;24.13;;;12.98;;
39738;SDS011;25422;48.286;8.484;2022-12-07T17:24:16;18.90;;;10.85;;